Time;durP1;ratioP1;P1;durP2;ratioP2;P2;SDS_P1;SDS_P2;PMS_P1;PMS_P2;Temp;Humidity;BMP_temperature;BMP_pressure;BME280_temperature;BME280_humidity;BME280_pressure;Samples;Min_cycle;Max_cycle;Signal;HPM_P1;HPM_P2
2022/06/28 00:00:19;;;;;;;31.25;18.33;;;13.70;99.90;;;;;;6262070;22;20073;-94
2022/06/28 00:03:04;;;;;;;26.58;16.70;;;14.00;99.90;;;;;;6254675;22;20019;-93
2022/06/28 00:05:48;;;;;;;29.60;18.25;;;12.60;99.90;;;;;;6282920;22;20065;-94
2022/06/28 00:08:26;;;;;;;;;;;12.70;99.90;;;;;;6254722;22;20012;-94
2022/06/28 00:11:08;;;;;;;30.98;18.48;;;12.60;99.90;;;;;;6278524;22;20699;-93
2022/06/28 00:13:49;;;;;;;29.10;17.90;;;13.40;99.90;;;;;;6278568;22;20103;-93
2022/06/28 00:16:35;;;;;;;32.10;18.38;;;13.70;99.90;;;;;;6251502;22;20065;-95
2022/06/28 00:19:13;;;;;;;31.48;19.05;;;12.60;99.90;;;;;;6251816;22;20074;-94
2022/06/28 00:22:16;;;;;;;34.42;19.30;;;13.40;99.90;;;;;;6251452;22;20023;-95
2022/06/28 00:24:50;;;;;;;30.08;19.92;;;12.60;99.90;;;;;;6250211;22;20269;-94
2022/06/28 00:27:31;;;;;;;33.80;20.70;;;13.30;99.90;;;;;;6279045;22;20023;-94
2022/06/28 00:30:15;;;;;;;36.15;20.50;;;13.30;99.90;;;;;;6250468;22;20059;-94
2022/06/28 00:32:47;;;;;;;;;;;12.90;99.90;;;;;;6251546;22;20048;-93
2022/06/28 00:35:28;;;;;;;32.25;19.25;;;12.40;99.90;;;;;;6251099;22;19915;-94
2022/06/28 00:38:12;;;;;;;32.17;20.25;;;12.40;99.90;;;;;;6277864;22;20083;-94
2022/06/28 00:41:00;;;;;;;32.75;19.85;;;12.50;99.90;;;;;;6251595;22;20012;-94
2022/06/28 00:43:26;;;;;;;32.85;18.23;;;12.40;99.90;;;;;;6277385;22;20103;-94
2022/06/28 00:46:30;;;;;;;34.80;20.05;;;12.50;99.90;;;;;;6251074;22;20015;-94
2022/06/28 00:49:14;;;;;;;29.98;17.58;;;12.50;99.90;;;;;;6277306;22;20030;-95
2022/06/28 00:51:43;;;;;;;30.60;20.20;;;12.80;99.90;;;;;;6277608;22;20499;-93
2022/06/28 00:54:25;;;;;;;31.17;19.00;;;12.30;99.90;;;;;;6251766;22;20073;-94
2022/06/28 00:56:54;;;;;;;30.73;18.55;;;12.80;99.90;;;;;;6251296;22;20499;-94
2022/06/28 00:59:30;;;;;;;30.10;18.02;;;13.20;99.90;;;;;;6250290;22;20020;-94
2022/06/28 01:02:10;;;;;;;31.42;19.13;;;13.30;99.90;;;;;;6250845;22;20020;-94
2022/06/28 01:05:06;;;;;;;33.45;19.73;;;12.20;99.90;;;;;;6239917;22;20016;-95
2022/06/28 01:07:47;;;;;;;30.90;18.02;;;12.30;99.90;;;;;;6220120;23;20027;-94
2022/06/28 01:10:14;;;;;;;33.05;18.75;;;13.10;99.90;;;;;;6247229;23;20016;-95
2022/06/28 01:12:39;;;;;;;32.47;19.05;;;13.10;99.90;;;;;;6263136;22;20042;-94
2022/06/28 01:15:18;;;;;;;30.83;18.35;;;12.30;99.90;;;;;;6251079;22;20024;-94
2022/06/28 01:17:46;;;;;;;30.00;17.45;;;12.20;99.90;;;;;;6251026;22;20018;-94
2022/06/28 01:20:42;;;;;;;25.90;16.88;;;12.70;99.90;;;;;;6249600;22;20020;-94
2022/06/28 01:23:23;;;;;;;30.27;17.50;;;12.10;99.90;;;;;;6251806;22;20022;-95
2022/06/28 01:25:48;;;;;;;26.85;17.13;;;13.20;99.90;;;;;;6250202;22;20022;-94
2022/06/28 01:28:15;;;;;;;29.92;17.23;;;12.00;99.90;;;;;;6250849;22;20016;-95
2022/06/28 01:31:20;;;;;;;30.75;17.25;;;12.00;99.90;;;;;;6277542;22;20055;-94
2022/06/28 01:34:01;;;;;;;30.20;16.52;;;11.60;99.90;;;;;;6250268;22;20016;-94
2022/06/28 01:39:13;;;;;;;29.92;17.70;;;11.80;99.90;;;;;;6276103;22;20028;-94
2022/06/28 01:41:58;;;;;;;28.08;17.17;;;10.50;99.90;;;;;;6250803;22;20019;-94
2022/06/28 01:44:28;;;;;;;35.80;18.10;;;11.60;99.90;;;;;;6249758;22;20440;-95
2022/06/28 01:47:07;;;;;;;33.22;18.15;;;11.90;99.90;;;;;;6250327;22;20020;-95
2022/06/28 01:49:32;;;;;;;28.83;17.55;;;11.80;99.90;;;;;;6277741;22;20011;-95
2022/06/28 01:52:05;;;;;;;29.92;17.88;;;11.70;99.90;;;;;;6277628;22;20335;-94
2022/06/28 01:54:37;;;;;;;28.92;17.25;;;11.80;99.90;;;;;;6249593;22;20054;-94
2022/06/28 01:57:21;;;;;;;32.25;18.05;;;12.40;99.90;;;;;;6250586;22;20008;-94
2022/06/28 02:00:23;;;;;;;;;;;12.90;99.90;;;;;;6250386;22;20513;-96
2022/06/28 02:02:57;;;;;;;29.38;17.13;;;11.70;99.90;;;;;;6248454;22;19915;-95
2022/06/28 02:05:41;;;;;;;32.72;17.20;;;11.60;99.90;;;;;;6250386;22;20479;-94
2022/06/28 02:08:20;;;;;;;25.27;15.90;;;12.10;99.90;;;;;;6276239;22;20012;-95
2022/06/28 02:10:59;;;;;;;31.85;19.60;;;11.80;99.90;;;;;;6276147;22;20046;-94
2022/06/28 02:13:31;;;;;;;35.42;19.10;;;12.50;99.90;;;;;;6250426;22;20507;-94
2022/06/28 02:16:12;;;;;;;33.38;19.70;;;12.10;99.90;;;;;;6277371;22;20019;-95
2022/06/28 02:18:53;;;;;;;31.42;19.38;;;11.40;99.90;;;;;;6250379;22;20387;-95
2022/06/28 02:21:56;;;;;;;33.65;19.55;;;12.30;99.90;;;;;;6276521;22;20023;-95
2022/06/28 02:24:31;;;;;;;37.88;19.08;;;12.10;99.90;;;;;;6277462;22;20043;-95
2022/06/28 02:27:00;;;;;;;37.10;19.45;;;12.20;99.90;;;;;;6249690;22;20314;-94
2022/06/28 02:29:41;;;;;;;35.83;20.10;;;12.30;99.90;;;;;;6249493;22;20087;-94
2022/06/28 02:32:16;;;;;;;39.53;21.33;;;11.90;99.90;;;;;;6249822;22;20070;-94
2022/06/28 02:40:35;;;;;;;37.10;18.80;;;11.70;99.90;;;;;;6250727;22;20019;-94
2022/06/28 02:43:13;;;;;;;35.20;19.75;;;12.50;99.90;;;;;;6249057;22;20385;-95
2022/06/28 02:45:58;;;;;;;35.25;20.00;;;12.40;99.90;;;;;;6276925;22;20528;-94
2022/06/28 02:48:45;;;;;;;38.38;19.77;;;11.90;99.90;;;;;;6250989;22;20098;-95
2022/06/28 02:51:20;;;;;;;39.25;20.23;;;12.00;99.90;;;;;;6124775;23;20455;-94
2022/06/28 02:54:16;;;;;;;41.85;21.23;;;12.80;99.90;;;;;;6252878;22;20072;-94
2022/06/28 02:56:58;;;;;;;37.60;20.55;;;12.10;99.90;;;;;;6275277;22;20079;-94
2022/06/28 02:59:27;;;;;;;34.80;19.52;;;12.20;99.90;;;;;;6303468;22;20027;-94
2022/06/28 03:02:09;;;;;;;33.55;19.42;;;13.30;99.90;;;;;;6289519;22;20338;-94
2022/06/28 03:04:56;;;;;;;33.47;19.20;;;12.10;99.90;;;;;;6281189;22;20436;-95
2022/06/28 03:08:00;;;;;;;33.25;18.75;;;12.00;99.90;;;;;;6279814;22;20062;-94
2022/06/28 03:10:38;;;;;;;35.20;19.30;;;12.10;99.90;;;;;;6251485;22;20033;-95
2022/06/28 03:13:19;;;;;;;33.22;18.67;;;12.80;99.90;;;;;;6275564;22;20020;-95
2022/06/28 03:16:07;;;;;;;34.70;18.65;;;12.70;99.90;;;;;;6250234;22;20016;-95
2022/06/28 03:18:48;;;;;;;32.97;18.85;;;12.20;99.90;;;;;;6249602;22;20072;-95
2022/06/28 03:21:14;;;;;;;33.20;18.27;;;12.20;99.90;;;;;;6249851;22;20022;-95
2022/06/28 03:23:49;;;;;;;37.95;19.67;;;12.20;99.90;;;;;;6276880;22;20016;-94
2022/06/28 03:26:20;;;;;;;32.30;18.73;;;12.70;99.90;;;;;;6249815;22;20007;-95
2022/06/28 03:28:55;;;;;;;39.92;20.10;;;12.60;99.90;;;;;;6276682;22;20008;-95
2022/06/28 03:31:41;;;;;;;33.35;18.50;;;12.90;99.90;;;;;;6276616;22;20070;-96
2022/06/28 03:34:22;;;;;;;30.17;18.63;;;12.20;99.90;;;;;;6277976;22;20093;-94
2022/06/28 03:36:57;;;;;;;39.85;19.52;;;12.40;99.90;;;;;;6251566;22;20019;-93
2022/06/28 03:39:43;;;;;;;34.35;19.05;;;13.10;99.90;;;;;;6251917;22;20016;-96
2022/06/28 03:42:20;;;;;;;35.05;18.95;;;12.10;99.90;;;;;;6252430;22;20008;-95
2022/06/28 03:45:05;;;;;;;34.67;18.67;;;12.30;99.90;;;;;;6278797;22;20077;-94
2022/06/28 03:51:13;;;;;;;31.33;17.60;;;12.00;99.90;;;;;;6251620;22;20020;-95
2022/06/28 03:53:58;;;;;;;32.55;17.73;;;12.80;99.90;;;;;;6251461;22;20016;-95
2022/06/28 03:56:39;;;;;;;31.65;18.00;;;12.00;99.90;;;;;;6251689;22;20020;-95
2022/06/28 03:59:27;;;;;;;35.65;19.30;;;12.10;99.90;;;;;;6251259;22;20016;-95
2022/06/28 04:01:59;;;;;;;32.28;17.92;;;11.80;99.90;;;;;;6248028;22;20087;-95
2022/06/28 04:04:35;;;;;;;30.17;18.13;;;12.00;99.90;;;;;;6251505;22;20090;-95
2022/06/28 04:07:05;;;;;;;31.88;18.40;;;12.00;99.90;;;;;;6249270;22;20020;-92
2022/06/28 04:09:36;;;;;;;34.15;19.38;;;12.70;99.90;;;;;;6251469;22;20020;-92
2022/06/28 04:12:11;;;;;;;35.70;19.33;;;13.10;99.90;;;;;;6251261;22;20015;-95
2022/06/28 04:14:57;;;;;;;39.00;20.48;;;12.30;99.90;;;;;;6251680;22;20016;-95
2022/06/28 04:17:51;;;;;;;38.15;18.75;;;11.90;99.90;;;;;;6250445;22;20035;-95
2022/06/28 04:20:45;;;;;;;36.42;20.48;;;11.40;99.90;;;;;;6278940;22;20350;-94
2022/06/28 04:23:14;;;;;;;34.10;18.88;;;11.80;99.90;;;;;;6250992;22;20012;-94
2022/06/28 04:25:58;;;;;;;34.10;18.55;;;12.20;99.90;;;;;;6279543;22;20047;-95
2022/06/28 04:28:30;;;;;;;34.72;20.88;;;11.90;99.90;;;;;;6251458;22;20042;-94
2022/06/28 04:31:15;;;;;;;37.17;21.30;;;12.80;99.90;;;;;;6251125;22;20069;-94
2022/06/28 04:33:59;;;;;;;41.58;22.02;;;11.70;99.90;;;;;;6248280;22;20019;-92
2022/06/28 04:36:34;;;;;;;39.88;20.65;;;12.20;99.90;;;;;;6251007;22;20050;-91
2022/06/28 04:39:12;;;;;;;40.65;21.58;;;12.20;99.90;;;;;;6278673;22;20036;-93
2022/06/28 04:41:44;;;;;;;37.10;22.02;;;12.10;99.90;;;;;;6251855;22;20015;-95
2022/06/28 04:44:18;;;;;;;39.17;21.05;;;12.90;99.90;;;;;;6250981;22;20023;-95
2022/06/28 04:47:15;;;;;;;37.15;21.38;;;13.30;99.90;;;;;;6250993;22;20042;-95
2022/06/28 04:49:56;;;;;;;40.22;21.45;;;12.30;99.90;;;;;;6184387;23;20462;-94
2022/06/28 04:52:40;;;;;;;37.70;22.58;;;12.50;99.90;;;;;;6184872;23;20021;-95
2022/06/28 04:55:21;;;;;;;37.72;21.75;;;11.80;99.90;;;;;;6160326;23;20021;-95
2022/06/28 04:57:49;;;;;;;35.20;21.13;;;13.10;99.90;;;;;;6184240;23;20211;-95
2022/06/28 05:11:20;;;;;;;35.03;21.77;;;13.20;99.90;;;;;;6263622;22;20024;-90
2022/06/28 05:14:51;;;;;;;37.10;21.65;;;12.40;99.90;;;;;;6248395;22;20586;-88
2022/06/28 05:21:14;;;;;;;35.72;21.77;;;13.00;99.90;;;;;;6247586;22;20107;-89
2022/06/28 05:27:36;;;;;;;35.75;21.35;;;13.10;99.90;;;;;;6245702;23;20450;-88
2022/06/28 05:30:27;;;;;;;32.40;21.35;;;13.20;99.90;;;;;;6216227;23;20044;-88
2022/06/28 05:33:21;;;;;;;35.05;20.40;;;13.20;99.90;;;;;;6221176;23;20095;-88
2022/06/28 05:36:01;;;;;;;32.28;20.02;;;13.30;99.90;;;;;;6218954;23;20016;-87
2022/06/28 05:38:42;;;;;;;31.60;20.20;;;14.40;99.90;;;;;;6116732;23;20431;-89
2022/06/28 05:44:11;;;;;;;31.02;18.48;;;13.50;99.90;;;;;;6268614;22;20432;-87
2022/06/28 05:47:33;;;;;;;28.08;18.55;;;14.40;99.90;;;;;;6092365;23;20065;-87
2022/06/28 05:53:15;;;;;;;25.73;17.58;;;13.70;99.90;;;;;;6106326;23;20057;-86
2022/06/28 05:55:53;;;;;;;25.80;17.73;;;13.70;99.90;;;;;;6210936;23;20046;-88
2022/06/28 05:58:34;;;;;;;25.52;16.75;;;13.90;99.90;;;;;;6214127;23;20010;-87
2022/06/28 06:01:08;;;;;;;27.25;17.80;;;14.90;99.90;;;;;;6207260;23;20023;-87
2022/06/28 06:03:56;;;;;;;29.40;16.98;;;14.50;99.90;;;;;;6093327;23;20018;-88
2022/06/28 06:06:40;;;;;;;25.40;17.35;;;13.60;99.90;;;;;;6091208;23;20447;-89
2022/06/28 06:09:20;;;;;;;28.08;18.35;;;14.90;99.90;;;;;;6103988;23;20014;-91
2022/06/28 06:12:02;;;;;;;28.67;16.98;;;15.30;99.90;;;;;;6193536;23;20025;-89
2022/06/28 06:14:37;;;;;;;25.60;16.25;;;14.10;99.90;;;;;;6192563;23;20346;-88
2022/06/28 06:17:18;;;;;;;26.05;16.55;;;14.20;99.90;;;;;;6092625;23;20059;-90
2022/06/28 06:19:49;;;;;;;23.42;15.05;;;15.20;99.90;;;;;;6193504;23;20014;-89
2022/06/28 06:22:23;;;;;;;26.48;15.30;;;14.40;99.90;;;;;;6092168;23;20064;-89
2022/06/28 06:24:56;;;;;;;24.27;15.23;;;14.80;99.90;;;;;;6092558;23;20015;-90
2022/06/28 06:30:20;;;;;;;25.63;14.30;;;14.70;99.90;;;;;;6244819;22;20020;-90
2022/06/28 06:33:15;;;;;;;22.45;14.25;;;14.70;99.90;;;;;;6244379;23;20470;-88
2022/06/28 06:35:51;;;;;;;21.90;12.48;;;14.60;99.90;;;;;;6204046;22;20027;-89
2022/06/28 06:38:21;;;;;;;21.98;12.90;;;14.90;99.90;;;;;;6274639;22;20360;-88
2022/06/28 06:41:02;;;;;;;18.60;11.45;;;16.00;99.90;;;;;;6248551;22;20012;-87
2022/06/28 06:46:39;;;;;;;19.38;9.02;;;15.20;99.90;;;;;;6272660;22;20024;-87
2022/06/28 06:49:14;;;;;;;16.38;7.60;;;14.80;99.90;;;;;;6275609;22;20012;-88
2022/06/28 06:56:16;;;;;;;17.52;7.50;;;15.00;99.90;;;;;;6276192;22;20018;-88
2022/06/28 07:02:29;;;;;;;14.80;5.80;;;15.70;99.90;;;;;;6274721;22;20129;-89
2022/06/28 07:05:32;;;;;;;14.77;6.47;;;15.90;99.90;;;;;;6247230;22;20019;-91
2022/06/28 07:12:35;;;;;;;16.67;6.60;;;16.20;99.90;;;;;;6274311;22;20024;-90
2022/06/28 07:15:52;;;;;;;17.25;7.07;;;16.20;99.90;;;;;;6274346;22;20334;-92
2022/06/28 07:19:03;;;;;;;13.07;5.80;;;16.40;99.90;;;;;;6225871;22;20027;-89
2022/06/28 07:21:51;;;;;;;13.38;6.32;;;16.50;99.90;;;;;;6249482;22;20016;-89
2022/06/28 07:24:17;;;;;;;13.65;6.55;;;16.40;99.90;;;;;;6276295;22;20075;-90
2022/06/28 07:27:30;;;;;;;15.95;7.00;;;17.00;99.90;;;;;;6248487;22;20437;-92
2022/06/28 07:34:22;;;;;;;14.73;6.90;;;16.80;99.90;;;;;;6122918;23;20053;-92
2022/06/28 07:36:50;;;;;;;16.25;7.55;;;17.00;99.90;;;;;;6123341;23;20022;-90
2022/06/28 07:39:26;;;;;;;15.25;6.13;;;17.20;99.90;;;;;;6122450;23;20018;-91
2022/06/28 07:41:53;;;;;;;13.60;6.30;;;17.00;99.90;;;;;;6123002;23;20018;-91
2022/06/28 07:44:28;;;;;;;13.57;5.18;;;17.90;99.90;;;;;;6123608;23;20033;-93
2022/06/28 07:53:26;;;;;;;14.93;7.03;;;17.70;99.90;;;;;;6162221;23;20034;-91
2022/06/28 07:56:21;;;;;;;14.23;5.80;;;18.10;99.90;;;;;;6162115;23;20061;-92
2022/06/28 07:59:05;;;;;;;13.55;5.57;;;17.90;99.90;;;;;;6063497;23;20093;-92
2022/06/28 08:04:11;;;;;;;13.07;4.38;;;18.10;99.90;;;;;;6246134;22;20343;-93
2022/06/28 08:06:59;;;;;;;11.18;4.50;;;19.00;99.90;;;;;;6216363;23;20444;-91
2022/06/28 08:09:34;;;;;;;11.98;5.22;;;19.00;99.90;;;;;;6245777;23;20669;-92
2022/06/28 08:11:59;;;;;;;14.82;6.00;;;18.50;99.90;;;;;;6249019;23;20202;-89
2022/06/28 08:14:39;;;;;;;14.57;6.13;;;19.60;99.90;;;;;;6217247;23;20374;-91
2022/06/28 08:17:27;;;;;;;;;;;;;;;;;;;;;
2022/06/28 08:20:11;;;;;;;10.90;4.75;;;18.80;99.90;;;;;;6218564;23;20024;-93
2022/06/28 08:23:17;;;;;;;12.23;4.30;;;19.30;99.90;;;;;;6246853;23;20085;-93
2022/06/28 08:26:42;;;;;;;11.43;6.07;;;18.30;99.90;;;;;;6247318;23;20310;-93
2022/06/28 08:31:53;;;;;;;10.23;3.60;;;18.40;99.90;;;;;;6250087;22;20024;-93
2022/06/28 08:34:25;;;;;;;11.48;4.63;;;18.50;99.90;;;;;;6250306;22;20443;-91
2022/06/28 08:36:50;;;;;;;12.13;4.53;;;19.60;99.90;;;;;;6250004;22;20340;-91
2022/06/28 08:39:35;;;;;;;10.73;4.03;;;18.80;99.90;;;;;;6250881;22;20027;-92
2022/06/28 08:42:42;;;;;;;12.43;3.95;;;18.90;99.90;;;;;;6277377;22;20015;-90
2022/06/28 08:45:09;;;;;;;10.32;3.30;;;19.80;99.90;;;;;;6278574;22;20073;-92
2022/06/28 08:48:34;;;;;;;;;;;;;;;;;;;;;
2022/06/28 08:52:04;;;;;;;;;;;;;;;;;;;;;
2022/06/28 08:54:56;;;;;;;10.00;3.22;;;19.50;99.90;;;;;;6191791;22;20447;-93
2022/06/28 08:57:37;;;;;;;9.40;3.10;;;19.60;99.90;;;;;;6289914;22;20000;-92
2022/06/28 09:04:18;;;;;;;8.75;2.90;;;19.20;99.90;;;;;;6256047;22;20094;-94
2022/06/28 09:06:56;;;;;;;8.32;2.65;;;19.30;99.90;;;;;;6253118;22;20019;-91
2022/06/28 09:09:41;;;;;;;9.45;2.80;;;19.40;99.90;;;;;;6251658;22;20452;-92
2022/06/28 09:12:13;;;;;;;8.98;2.70;;;20.20;99.90;;;;;;6254966;22;20086;-94
2022/06/28 09:18:11;;;;;;;11.38;2.70;;;19.90;99.90;;;;;;6240043;22;20028;-94
2022/06/28 09:21:14;;;;;;;12.43;2.53;;;19.80;99.90;;;;;;6227323;22;20018;-95
2022/06/28 09:24:01;;;;;;;7.63;2.67;;;19.90;99.90;;;;;;6222700;23;20081;-95
2022/06/28 09:35:31;;;;;;;;;;;;;;;;;;;;;
2022/06/28 09:38:05;;;;;;;11.05;2.50;;;19.90;99.90;;;;;;6214775;23;20034;-96
2022/06/28 09:40:43;;;;;;;9.40;2.83;;;20.00;99.90;;;;;;6220577;23;20023;-94
2022/06/28 09:43:50;;;;;;;10.23;2.90;;;20.10;99.90;;;;;;6247191;23;20027;-95
2022/06/28 09:46:49;;;;;;;8.05;2.70;;;20.00;99.90;;;;;;6220646;23;20054;-95
2022/06/28 09:49:34;;;;;;;10.15;3.20;;;20.00;99.90;;;;;;6219813;23;20062;-95
2022/06/28 10:06:18;;;;;;;8.07;3.08;;;20.40;99.90;;;;;;6248572;23;20388;-91
2022/06/28 10:09:28;;;;;;;9.02;3.20;;;20.90;99.90;;;;;;6219816;23;20433;-92
2022/06/28 10:15:08;;;;;;;8.82;2.90;;;20.80;99.90;;;;;;6245180;23;20091;-92
2022/06/28 10:17:49;;;;;;;10.68;3.33;;;20.40;99.90;;;;;;6200083;23;20009;-94
2022/06/28 10:20:23;;;;;;;9.43;2.65;;;21.20;99.90;;;;;;6218877;23;20333;-92
2022/06/28 10:22:49;;;;;;;8.45;2.80;;;21.10;99.90;;;;;;6219953;23;20445;-94
2022/06/28 10:25:17;;;;;;;7.30;2.50;;;20.90;99.90;;;;;;6220877;23;20022;-93
2022/06/28 10:27:51;;;;;;;11.10;2.70;;;21.10;99.90;;;;;;6254992;23;20047;-96
2022/06/28 10:30:19;;;;;;;9.75;2.70;;;21.20;99.90;;;;;;6227370;23;20020;-95
2022/06/28 10:33:06;;;;;;;7.95;2.80;;;21.50;99.90;;;;;;6254287;23;20015;-96
2022/06/28 10:35:34;;;;;;;8.73;3.10;;;21.50;99.90;;;;;;6225067;23;20012;-95
2022/06/28 10:38:14;;;;;;;9.90;3.30;;;22.00;99.90;;;;;;6224033;23;20035;-95
2022/06/28 11:14:54;;;;;;;7.18;2.33;;;22.30;99.90;;;;;;6278650;22;20061;-92
2022/06/28 11:17:36;;;;;;;;;;;22.60;99.90;;;;;;6248245;22;20456;-91
2022/06/28 11:20:30;;;;;;;6.57;1.95;;;22.80;99.90;;;;;;6274438;22;19946;-92
2022/06/28 11:23:42;;;;;;;8.38;2.30;;;22.90;99.90;;;;;;6250010;22;20011;-92
2022/06/28 11:34:14;;;;;;;6.18;2.00;;;22.50;99.90;;;;;;6181967;23;20024;-91
2022/06/28 11:44:41;;;;;;;11.95;2.60;;;23.00;99.90;;;;;;6122623;23;20470;-91
2022/06/28 11:50:56;;;;;;;6.30;2.00;;;22.90;99.90;;;;;;6153436;23;20068;-92
2022/06/28 11:53:23;;;;;;;8.88;2.22;;;23.40;99.90;;;;;;6127514;23;20618;-91
2022/06/28 12:03:10;;;;;;;8.80;2.60;;;23.60;99.90;;;;;;6181514;23;20021;-93
2022/06/28 12:14:18;;;;;;;;;;;;;;;;;;;;;
2022/06/28 13:09:17;;;;;;;7.55;1.90;;;25.40;96.70;;;;;;6121500;23;20032;-93
2022/06/28 13:15:49;;;;;;;6.53;1.95;;;24.70;99.90;;;;;;6122998;23;20055;-95
2022/06/28 13:18:33;;;;;;;9.30;1.90;;;24.70;99.90;;;;;;6122528;23;20025;-95
2022/06/28 13:21:47;;;;;;;8.60;1.90;;;24.70;99.90;;;;;;6098164;23;20628;-94
2022/06/28 13:24:50;;;;;;;7.53;2.00;;;24.40;97.40;;;;;;6085624;23;20029;-96
2022/06/28 13:27:16;;;;;;;6.70;2.10;;;24.20;97.80;;;;;;6130248;23;20073;-96
2022/06/28 13:38:30;;;;;;;7.25;1.90;;;25.30;93.80;;;;;;6009443;23;20309;-96
2022/06/28 13:45:10;;;;;;;8.23;2.10;;;24.50;98.20;;;;;;5850541;24;20062;-96
2022/06/28 13:48:19;;;;;;;6.65;2.10;;;25.00;99.90;;;;;;5869185;24;20031;-96
2022/06/28 13:55:43;;;;;;;;;;;;;;;;;;;;;
2022/06/28 14:51:02;;;;;;;11.05;3.70;;;24.60;93.60;;;;;;6219893;23;20016;-93
2022/06/28 14:54:10;;;;;;;7.57;2.22;;;24.20;94.20;;;;;;6152153;23;20460;-94
2022/06/28 15:11:45;;;;;;;9.70;2.00;;;25.50;94.50;;;;;;6303088;22;20004;-96
2022/06/28 15:46:24;;;;;;;6.50;1.88;;;26.60;93.30;;;;;;6290379;22;20054;-94
2022/06/28 16:57:08;;;;;;;5.95;1.75;;;28.90;83.60;;;;;;6276372;22;20110;-96
2022/06/28 17:11:28;;;;;;;7.30;1.95;;;29.10;81.80;;;;;;6276126;22;20104;-87
2022/06/28 17:14:09;;;;;;;5.88;1.77;;;29.00;82.40;;;;;;6123228;23;20026;-89
2022/06/28 17:17:06;;;;;;;7.35;1.67;;;28.90;80.00;;;;;;6122063;23;20084;-92
2022/06/28 17:37:47;;;;;;;7.78;2.28;;;28.20;82.20;;;;;;6090850;23;20103;-91
2022/06/28 17:57:22;;;;;;;7.47;2.03;;;28.80;79.40;;;;;;6242324;22;20028;-91
2022/06/28 19:06:06;;;;;;;6.35;1.98;;;27.00;84.10;;;;;;6213582;23;20058;-90
2022/06/28 19:08:40;;;;;;;6.03;1.70;;;25.90;86.40;;;;;;6186488;23;20017;-90
2022/06/28 19:23:02;;;;;;;7.10;2.00;;;23.30;91.80;;;;;;6213313;23;20405;-90
2022/06/28 19:29:18;;;;;;;7.22;1.80;;;22.70;94.20;;;;;;6212928;23;20019;-90
2022/06/28 19:35:09;;;;;;;6.85;2.20;;;22.20;95.40;;;;;;6187211;23;20025;-90
2022/06/28 19:38:03;;;;;;;6.32;1.92;;;22.00;96.30;;;;;;6187375;23;20028;-90
2022/06/28 19:44:22;;;;;;;9.35;2.40;;;21.50;98.90;;;;;;6187852;23;20024;-90
2022/06/28 19:47:03;;;;;;;8.43;2.10;;;21.30;99.40;;;;;;6213977;23;20012;-90
2022/06/28 19:49:28;;;;;;;8.57;2.03;;;21.10;99.90;;;;;;6214633;23;20024;-92
2022/06/28 19:51:57;;;;;;;9.13;2.20;;;21.00;99.90;;;;;;6213416;23;20021;-85
2022/06/28 19:54:24;;;;;;;7.18;2.00;;;20.90;99.90;;;;;;6189817;23;20013;-86
2022/06/28 19:56:51;;;;;;;8.52;2.10;;;21.30;99.90;;;;;;6214183;23;20059;-84
2022/06/28 19:59:18;;;;;;;8.57;2.17;;;20.60;99.90;;;;;;6215785;23;20024;-84
2022/06/28 20:01:44;;;;;;;7.57;2.10;;;20.40;99.90;;;;;;6188263;23;20016;-85
2022/06/28 20:04:13;;;;;;;7.45;1.95;;;20.30;99.90;;;;;;6188536;23;20020;-85
2022/06/28 20:06:38;;;;;;;7.03;2.10;;;20.20;99.90;;;;;;6216370;23;20035;-85
2022/06/28 20:09:04;;;;;;;6.75;2.00;;;20.10;99.90;;;;;;6216658;23;20497;-84
2022/06/28 20:11:30;;;;;;;9.20;2.22;;;20.00;99.90;;;;;;6188928;23;20429;-85
2022/06/28 20:13:56;;;;;;;6.70;2.20;;;19.90;99.90;;;;;;6190159;23;20445;-85
2022/06/28 20:16:22;;;;;;;6.55;2.10;;;19.70;99.90;;;;;;6217669;23;20020;-84
2022/06/28 20:18:48;;;;;;;6.03;2.00;;;19.60;99.90;;;;;;6190328;23;20078;-84
2022/06/28 20:21:14;;;;;;;6.75;2.10;;;19.50;99.90;;;;;;6218442;23;20084;-84
2022/06/28 20:23:42;;;;;;;6.68;1.83;;;19.40;99.90;;;;;;6192450;23;20070;-84
2022/06/28 20:26:08;;;;;;;8.70;2.20;;;19.50;99.90;;;;;;6190091;23;20024;-85
2022/06/28 20:28:34;;;;;;;7.78;2.13;;;19.30;99.90;;;;;;6190989;23;20021;-84
2022/06/28 20:31:00;;;;;;;9.38;2.35;;;19.20;99.90;;;;;;6190117;23;20519;-84
2022/06/28 20:36:07;;;;;;;6.97;2.03;;;19.00;99.90;;;;;;6250620;22;20483;-83
2022/06/28 20:38:49;;;;;;;6.50;2.10;;;19.50;99.90;;;;;;6248624;22;20105;-84
2022/06/28 20:44:31;;;;;;;7.50;2.00;;;18.70;99.90;;;;;;6252738;22;20069;-83
2022/06/28 20:47:16;;;;;;;8.60;2.40;;;17.90;99.90;;;;;;6277676;22;20090;-83
2022/06/28 20:49:56;;;;;;;10.15;2.33;;;18.50;99.90;;;;;;6252383;22;20090;-84
2022/06/28 20:52:42;;;;;;;11.48;2.50;;;18.50;99.90;;;;;;6252751;22;20452;-85
2022/06/28 20:55:13;;;;;;;7.47;2.30;;;18.40;99.90;;;;;;6280644;22;20020;-84
2022/06/28 20:58:15;;;;;;;9.75;2.58;;;18.20;99.90;;;;;;6256257;22;20091;-93
2022/06/28 21:04:42;;;;;;;7.47;2.60;;;18.00;99.90;;;;;;6280777;22;20336;-94
2022/06/28 21:26:53;;;;;;;;;;;;;;;;;;;;;
2022/06/28 21:33:44;;;;;;;10.10;2.47;;;17.70;99.90;;;;;;6278265;22;20051;-90
2022/06/28 21:47:27;;;;;;;6.13;2.30;;;17.40;99.90;;;;;;6218318;23;20365;-91
2022/06/28 21:49:52;;;;;;;8.25;2.55;;;17.00;99.90;;;;;;6215713;23;20449;-91
2022/06/28 21:52:30;;;;;;;6.38;2.30;;;17.60;99.90;;;;;;6088168;23;20021;-92
2022/06/28 21:55:02;;;;;;;6.63;2.30;;;17.80;99.90;;;;;;6217689;23;20083;-90
2022/06/28 21:58:18;;;;;;;7.30;2.28;;;17.20;99.90;;;;;;6087080;23;20017;-91
2022/06/28 22:01:24;;;;;;;7.18;2.40;;;17.00;99.90;;;;;;6216024;23;20052;-91
2022/06/28 22:07:22;;;;;;;9.35;3.47;;;17.60;99.90;;;;;;6216917;23;20073;-91
2022/06/28 22:14:17;;;;;;;7.40;2.50;;;16.90;99.90;;;;;;5976817;23;20090;-90
2022/06/28 22:16:48;;;;;;;8.75;2.50;;;16.90;99.90;;;;;;5976171;24;20020;-91
2022/06/28 22:22:02;;;;;;;9.25;2.65;;;16.80;99.90;;;;;;6275405;22;20338;-90
2022/06/28 22:28:30;;;;;;;7.93;2.50;;;16.70;99.90;;;;;;6275043;22;20054;-90
2022/06/28 22:31:11;;;;;;;11.27;2.80;;;16.70;99.90;;;;;;6275628;22;20023;-91
2022/06/28 22:33:43;;;;;;;8.00;2.60;;;16.60;99.90;;;;;;6246829;22;20015;-91
2022/06/28 22:45:00;;;;;;;7.88;2.53;;;16.40;99.90;;;;;;6276501;22;20014;-90
2022/06/28 22:47:35;;;;;;;7.40;2.45;;;17.00;99.90;;;;;;6276067;22;20023;-91
2022/06/28 22:53:55;;;;;;;8.60;2.83;;;16.30;99.90;;;;;;6123554;23;20021;-92
2022/06/28 23:12:16;;;;;;;8.60;2.90;;;16.10;99.90;;;;;;6277225;22;20067;-91
2022/06/28 23:22:07;;;;;;;9.57;3.08;;;16.00;99.90;;;;;;6276417;22;20019;-92
2022/06/28 23:29:00;;;;;;;8.43;3.10;;;15.80;99.90;;;;;;6248666;22;20098;-91
2022/06/28 23:32:17;;;;;;;;;;;;;;;;;;;;;
2022/06/28 23:38:58;;;;;;;10.50;3.08;;;15.60;99.90;;;;;;6183634;23;19969;-91
2022/06/28 23:41:42;;;;;;;7.15;2.83;;;15.60;99.90;;;;;;6182687;23;20028;-92
